createdAt,value
2022-10-04T00:03:03.180Z,25.60
2022-10-04T00:08:22.941Z,21.60
2022-10-04T00:13:27.730Z,22.15
2022-10-04T00:18:31.717Z,20.55
2022-10-04T00:23:49.114Z,18.52
2022-10-04T00:28:53.652Z,21.40
2022-10-04T00:39:14.342Z,19.00
2022-10-04T00:44:20.813Z,15.55
2022-10-04T00:49:24.910Z,18.17
2022-10-04T00:59:45.000Z,16.00
2022-10-04T01:04:51.199Z,18.98
2022-10-04T01:09:55.532Z,17.05
2022-10-04T01:15:03.884Z,16.70
2022-10-04T01:20:27.548Z,18.45
2022-10-04T01:25:48.055Z,20.80
2022-10-04T01:30:51.012Z,19.42
2022-10-04T01:35:53.785Z,19.38
2022-10-04T01:41:01.136Z,19.30
2022-10-04T01:46:06.339Z,21.77
2022-10-04T01:51:14.336Z,17.63
2022-10-04T01:56:20.755Z,16.42
2022-10-04T02:01:26.715Z,13.55
2022-10-04T02:06:30.969Z,14.95
2022-10-04T02:16:39.728Z,14.10
2022-10-04T02:21:43.272Z,14.35
2022-10-04T02:26:50.316Z,16.20
2022-10-04T02:32:12.252Z,10.88
2022-10-04T02:37:15.379Z,15.02
2022-10-04T02:42:21.690Z,19.88
2022-10-04T02:47:29.440Z,13.68
2022-10-04T02:52:34.671Z,17.40
2022-10-04T02:57:37.518Z,15.23
2022-10-04T03:02:41.815Z,14.82
2022-10-04T03:07:45.158Z,14.38
2022-10-04T03:12:51.221Z,14.13
2022-10-04T03:17:55.886Z,14.18
2022-10-04T03:22:58.967Z,10.70
2022-10-04T03:28:03.197Z,12.23
2022-10-04T03:33:07.781Z,8.35
2022-10-04T03:38:12.884Z,7.78
2022-10-04T03:43:16.042Z,10.45
2022-10-04T03:48:27.067Z,10.20
2022-10-04T03:53:31.789Z,7.47
2022-10-04T03:58:34.792Z,12.30
2022-10-04T04:03:43.268Z,9.45
2022-10-04T04:08:47.523Z,9.95
2022-10-04T04:18:56.447Z,8.35
2022-10-04T04:24:00.757Z,6.85
2022-10-04T04:29:06.647Z,10.98
2022-10-04T04:34:18.376Z,13.77
2022-10-04T04:39:41.128Z,7.68
2022-10-04T04:44:48.386Z,8.65
2022-10-04T04:49:52.657Z,10.23
2022-10-04T04:54:57.361Z,12.43
2022-10-04T05:00:02.140Z,10.23
2022-10-04T05:05:15.998Z,10.60
2022-10-04T05:10:31.437Z,14.27
2022-10-04T05:15:35.936Z,11.68
2022-10-04T05:20:39.973Z,12.05
2022-10-04T05:25:42.681Z,11.20
2022-10-04T05:30:50.009Z,9.52
2022-10-04T05:36:02.897Z,7.82
2022-10-04T05:41:08.072Z,13.23
2022-10-04T05:46:16.623Z,8.07
2022-10-04T05:51:21.824Z,6.53
2022-10-04T05:56:40.793Z,9.23
2022-10-04T06:01:55.659Z,9.35
2022-10-04T06:07:02.882Z,10.38
2022-10-04T06:12:09.309Z,9.35
2022-10-04T06:17:24.450Z,9.65
2022-10-04T06:22:28.933Z,9.68
2022-10-04T06:27:33.425Z,9.00
2022-10-04T06:32:51.024Z,5.22
2022-10-04T06:38:06.717Z,6.82
2022-10-04T06:43:16.538Z,6.53
2022-10-04T06:48:27.194Z,6.60
2022-10-04T06:53:44.494Z,7.60
2022-10-04T06:59:13.868Z,8.88
2022-10-04T07:04:22.702Z,7.25
2022-10-04T07:09:28.553Z,8.63
2022-10-04T07:14:35.817Z,6.57
2022-10-04T07:19:40.056Z,10.43
2022-10-04T07:24:50.612Z,7.10
2022-10-04T07:29:55.275Z,5.38
2022-10-04T07:35:01.202Z,8.73
2022-10-04T07:40:08.837Z,8.35
2022-10-04T07:45:15.404Z,3.88
2022-10-04T07:50:23.205Z,9.27
2022-10-04T07:55:29.950Z,5.55
2022-10-04T08:00:38.115Z,6.55
2022-10-04T08:05:43.224Z,7.05
2022-10-04T08:10:57.618Z,7.97
2022-10-04T08:16:03.590Z,7.03
2022-10-04T08:21:07.865Z,5.25
2022-10-04T08:26:24.009Z,5.93
2022-10-04T08:31:32.789Z,8.48
2022-10-04T08:36:43.964Z,7.10
2022-10-04T08:42:04.954Z,3.92
2022-10-04T08:47:32.130Z,4.55
2022-10-04T08:52:43.609Z,7.30
2022-10-04T08:57:57.450Z,5.28
2022-10-04T09:03:21.679Z,5.60
2022-10-04T09:08:42.088Z,5.50
2022-10-04T09:13:58.829Z,8.07
2022-10-04T09:19:19.214Z,6.70
2022-10-04T09:24:40.049Z,4.63
2022-10-04T09:29:53.719Z,6.55
2022-10-04T09:35:08.670Z,5.47
2022-10-04T09:40:23.043Z,8.07
2022-10-04T09:45:32.005Z,6.78
2022-10-04T09:50:53.879Z,6.28
2022-10-04T09:56:05.426Z,3.87
2022-10-04T10:01:24.793Z,4.15
2022-10-04T10:06:41.819Z,6.03
2022-10-04T10:12:08.467Z,7.65
2022-10-04T10:17:17.904Z,4.55
2022-10-04T10:22:38.991Z,5.13
2022-10-04T10:27:52.786Z,5.22
2022-10-04T10:33:09.920Z,2.83
2022-10-04T10:38:25.333Z,5.72
2022-10-04T10:43:41.783Z,6.50
2022-10-04T10:49:03.089Z,4.88
2022-10-04T10:54:30.453Z,6.85
2022-10-04T11:00:00.778Z,6.07
2022-10-04T11:05:19.807Z,6.15
2022-10-04T11:10:43.389Z,5.82
2022-10-04T11:16:07.309Z,4.85
2022-10-04T11:21:22.154Z,4.85
2022-10-04T11:26:46.676Z,5.43
2022-10-04T11:32:14.034Z,4.68
2022-10-04T11:37:23.180Z,5.50
2022-10-04T11:42:30.376Z,4.05
2022-10-04T11:47:40.537Z,5.25
2022-10-04T11:53:11.901Z,5.97
2022-10-04T11:58:19.019Z,3.50
2022-10-04T12:03:34.289Z,6.43
2022-10-04T12:08:48.968Z,2.80
2022-10-04T12:14:09.444Z,3.03
2022-10-04T12:19:42.552Z,6.57
2022-10-04T12:25:09.437Z,6.03
2022-10-04T12:30:20.710Z,3.97
2022-10-04T12:35:27.564Z,4.32
2022-10-04T12:40:33.368Z,6.68
2022-10-04T12:45:46.040Z,5.47
2022-10-04T12:50:54.169Z,6.35
2022-10-04T12:56:08.653Z,4.65
2022-10-04T13:01:16.280Z,3.53
2022-10-04T13:06:24.076Z,3.65
2022-10-04T13:11:34.961Z,3.58
2022-10-04T13:22:37.593Z,3.35
2022-10-04T13:27:47.998Z,5.65
2022-10-04T13:32:57.492Z,6.03
2022-10-04T13:38:13.330Z,4.00
2022-10-04T13:43:34.348Z,4.20
2022-10-04T13:48:46.202Z,4.03
2022-10-04T13:54:10.318Z,2.73
2022-10-04T13:59:19.410Z,2.72
2022-10-04T14:04:36.741Z,2.42
2022-10-04T14:09:53.908Z,5.82
2022-10-04T14:15:07.464Z,2.00
2022-10-04T14:20:25.168Z,3.33
2022-10-04T14:25:45.623Z,3.47
2022-10-04T14:30:59.455Z,3.47
2022-10-04T14:36:19.632Z,4.90
2022-10-04T14:41:45.537Z,2.55
2022-10-04T14:46:57.944Z,3.60
2022-10-04T14:52:08.442Z,3.28
2022-10-04T14:57:14.314Z,6.70
2022-10-04T15:02:50.466Z,2.80
2022-10-04T15:07:56.539Z,3.17
2022-10-04T15:13:11.238Z,6.07
2022-10-04T15:18:28.131Z,5.15
2022-10-04T15:23:38.003Z,2.58
2022-10-04T15:28:47.974Z,3.55
2022-10-04T15:33:58.900Z,3.83
2022-10-04T15:39:07.503Z,4.07
2022-10-04T15:44:18.789Z,4.70
2022-10-04T15:49:31.678Z,4.65
2022-10-04T15:54:47.231Z,2.80
2022-10-04T15:59:53.564Z,2.75
2022-10-04T16:05:04.489Z,6.22
2022-10-04T16:10:15.814Z,3.97
2022-10-04T16:15:20.832Z,5.50
2022-10-04T16:20:40.705Z,3.65
2022-10-04T16:25:48.036Z,5.60
2022-10-04T16:31:11.393Z,8.30
2022-10-04T16:36:15.744Z,10.93
2022-10-04T16:41:30.364Z,5.40
2022-10-04T16:46:37.735Z,9.45
2022-10-04T16:51:56.905Z,10.05
2022-10-04T16:57:15.494Z,9.15
2022-10-04T17:02:36.483Z,7.35
2022-10-04T17:07:50.278Z,7.55
2022-10-04T17:13:02.671Z,9.65
2022-10-04T17:18:14.461Z,6.95
2022-10-04T17:23:25.491Z,8.40
2022-10-04T17:28:36.239Z,9.52
2022-10-04T17:33:50.222Z,8.27
2022-10-04T17:38:57.341Z,11.20
2022-10-04T17:44:14.749Z,9.98
2022-10-04T17:49:39.425Z,10.98
2022-10-04T17:55:02.360Z,10.18
2022-10-04T18:00:10.475Z,9.07
2022-10-04T18:05:18.280Z,9.30
2022-10-04T18:10:24.843Z,8.77
2022-10-04T18:15:31.280Z,10.13
2022-10-04T18:20:36.195Z,6.53
2022-10-04T18:25:41.170Z,10.30
2022-10-04T18:30:59.021Z,16.45
2022-10-04T18:36:07.546Z,9.10
2022-10-04T18:41:21.572Z,10.98
2022-10-04T18:46:26.127Z,6.28
2022-10-04T18:51:30.313Z,10.98
2022-10-04T18:56:34.649Z,10.80
2022-10-04T19:02:03.399Z,12.65
2022-10-04T19:07:10.831Z,9.57
2022-10-04T19:12:17.095Z,11.98
2022-10-04T19:17:27.481Z,12.02
2022-10-04T19:22:41.601Z,10.85
2022-10-04T19:27:49.742Z,11.52
2022-10-04T19:33:08.988Z,16.77
2022-10-04T19:38:22.267Z,11.88
2022-10-04T19:43:33.568Z,11.32
2022-10-04T19:48:43.144Z,5.03
2022-10-04T19:53:46.378Z,9.13
2022-10-04T19:58:55.249Z,9.38
2022-10-04T20:04:20.697Z,9.43
2022-10-04T20:09:26.956Z,8.90
2022-10-04T20:14:53.407Z,15.40
2022-10-04T20:19:57.488Z,11.18
2022-10-04T20:30:05.304Z,9.52
2022-10-04T20:35:11.361Z,5.07
2022-10-04T20:40:37.640Z,11.18
2022-10-04T20:45:45.380Z,9.63
2022-10-04T20:50:50.370Z,13.05
2022-10-04T20:56:08.721Z,6.43
2022-10-04T21:01:40.118Z,14.43
2022-10-04T21:06:53.911Z,13.93
2022-10-04T21:11:57.454Z,8.05
2022-10-04T21:17:03.072Z,13.27
2022-10-04T21:22:07.748Z,13.98
2022-10-04T21:27:11.380Z,9.00
2022-10-04T21:37:20.715Z,12.73
2022-10-04T21:42:25.096Z,11.30
2022-10-04T21:47:28.152Z,14.52
2022-10-04T21:52:38.993Z,12.27
2022-10-04T21:57:42.632Z,10.10
2022-10-04T22:02:45.510Z,8.27
2022-10-04T22:07:49.690Z,10.10
2022-10-04T22:17:59.869Z,9.38
2022-10-04T22:23:05.577Z,10.50
2022-10-04T22:28:14.966Z,7.53
2022-10-04T22:33:33.391Z,11.18
2022-10-04T22:38:42.266Z,7.20
2022-10-04T22:43:45.398Z,9.32
2022-10-04T22:48:49.145Z,10.52
2022-10-04T22:53:54.636Z,7.30
2022-10-04T22:58:59.113Z,7.60
2022-10-04T23:04:02.095Z,6.30
2022-10-04T23:09:06.130Z,7.10
2022-10-04T23:14:09.102Z,8.70
2022-10-04T23:19:12.512Z,10.40
2022-10-04T23:24:17.726Z,9.93
2022-10-04T23:29:23.405Z,7.20
2022-10-04T23:34:28.367Z,5.00
2022-10-04T23:39:33.778Z,7.00
2022-10-04T23:44:37.540Z,5.70
2022-10-04T23:49:40.471Z,8.93
2022-10-04T23:54:44.523Z,8.43
2022-10-04T23:59:47.559Z,8.35
